createdAt,value
2018-07-28T00:00:32.926Z,7.53
2018-07-28T00:03:00.945Z,6.93
2018-07-28T00:05:28.995Z,7.70
2018-07-28T00:07:57.015Z,7.67
2018-07-28T00:10:25.028Z,6.90
2018-07-28T00:12:53.054Z,7.73
2018-07-28T00:15:21.094Z,7.87
2018-07-28T00:17:49.161Z,7.03
2018-07-28T00:20:17.179Z,7.37
2018-07-28T00:22:45.186Z,8.10
2018-07-28T00:25:13.226Z,8.10
2018-07-28T00:27:41.657Z,7.90
2018-07-28T00:30:10.609Z,8.10
2018-07-28T00:32:38.614Z,8.70
2018-07-28T00:35:06.799Z,7.90
2018-07-28T00:37:34.923Z,8.10
2018-07-28T00:40:02.923Z,8.00
2018-07-28T00:42:31.075Z,7.93
2018-07-28T00:44:59.090Z,8.40
2018-07-28T00:47:27.110Z,8.67
2018-07-28T00:49:55.109Z,7.43
2018-07-28T00:52:23.135Z,8.27
2018-07-28T00:54:51.131Z,7.40
2018-07-28T00:57:19.154Z,8.00
2018-07-28T00:59:47.167Z,7.90
2018-07-28T01:02:15.185Z,9.47
2018-07-28T01:04:43.233Z,7.97
2018-07-28T01:07:11.233Z,8.20
2018-07-28T01:09:39.226Z,8.83
2018-07-28T01:12:07.296Z,9.20
2018-07-28T01:14:35.316Z,7.83
2018-07-28T01:17:03.322Z,7.67
2018-07-28T01:19:31.342Z,7.83
2018-07-28T01:21:59.346Z,8.50
2018-07-28T01:24:27.365Z,8.10
2018-07-28T01:26:55.427Z,8.50
2018-07-28T01:29:23.460Z,8.93
2018-07-28T01:31:51.479Z,8.70
2018-07-28T01:34:19.482Z,8.90
2018-07-28T01:36:47.583Z,8.10
2018-07-28T01:39:15.689Z,8.53
2018-07-28T01:41:44.135Z,8.13
2018-07-28T01:44:12.183Z,8.57
2018-07-28T01:46:40.664Z,8.47
2018-07-28T01:49:08.665Z,7.40
2018-07-28T01:51:36.726Z,7.83
2018-07-28T01:54:04.754Z,8.30
2018-07-28T01:56:32.777Z,8.37
2018-07-28T01:59:00.799Z,8.90
2018-07-28T02:01:28.934Z,7.80
2018-07-28T02:03:57.124Z,9.33
2018-07-28T02:06:25.150Z,7.80
2018-07-28T02:08:53.159Z,8.13
2018-07-28T02:11:21.169Z,7.40
2018-07-28T02:13:49.178Z,7.63
2018-07-28T02:16:17.181Z,7.87
2018-07-28T02:18:45.201Z,8.43
2018-07-28T02:21:13.197Z,7.00
2018-07-28T02:23:41.314Z,9.17
2018-07-28T02:26:09.355Z,8.07
2018-07-28T02:28:37.352Z,8.20
2018-07-28T02:31:05.354Z,8.10
2018-07-28T02:33:33.394Z,8.90
2018-07-28T02:36:01.403Z,7.30
2018-07-28T02:38:29.414Z,7.97
2018-07-28T02:40:57.439Z,7.33
2018-07-28T02:43:25.462Z,8.10
2018-07-28T02:45:53.498Z,6.53
2018-07-28T02:48:26.561Z,7.57
2018-07-28T02:50:54.578Z,6.90
2018-07-28T02:53:22.592Z,7.73
2018-07-28T02:55:50.579Z,7.87
2018-07-28T02:58:18.592Z,7.53
2018-07-28T03:00:46.618Z,7.10
2018-07-28T03:03:14.618Z,7.80
2018-07-28T03:05:42.620Z,6.77
2018-07-28T03:08:10.618Z,7.20
2018-07-28T03:10:38.638Z,7.00
2018-07-28T03:13:06.682Z,7.60
2018-07-28T03:15:35.655Z,8.03
2018-07-28T03:18:05.363Z,7.40
2018-07-28T03:20:33.380Z,6.57
2018-07-28T03:23:02.321Z,6.93
2018-07-28T03:25:30.317Z,7.23
2018-07-28T03:27:58.329Z,8.40
2018-07-28T03:30:27.030Z,7.30
2018-07-28T03:32:55.043Z,7.43
2018-07-28T03:35:23.041Z,7.60
2018-07-28T03:37:51.067Z,8.60
2018-07-28T03:40:19.058Z,8.03
2018-07-28T03:42:47.050Z,7.80
2018-07-28T03:45:15.052Z,8.00
2018-07-28T03:47:43.058Z,6.47
2018-07-28T03:50:11.724Z,7.43
2018-07-28T03:52:39.752Z,7.80
2018-07-28T03:55:08.901Z,8.03
2018-07-28T03:57:36.926Z,7.23
2018-07-28T04:00:06.384Z,7.83
2018-07-28T04:02:34.385Z,7.60
2018-07-28T04:05:02.377Z,8.00
2018-07-28T04:07:30.398Z,7.30
2018-07-28T04:09:58.435Z,7.63
2018-07-28T04:12:26.445Z,7.00
2018-07-28T04:14:54.474Z,8.07
2018-07-28T04:17:22.486Z,7.70
2018-07-28T04:19:50.499Z,7.90
2018-07-28T04:22:18.522Z,7.60
2018-07-28T04:24:46.539Z,7.57
2018-07-28T04:27:14.550Z,7.50
2018-07-28T04:29:42.560Z,7.53
2018-07-28T04:32:10.596Z,9.00
2018-07-28T04:34:38.607Z,8.67
2018-07-28T04:37:06.708Z,7.70
2018-07-28T04:39:34.659Z,7.70
2018-07-28T04:42:02.661Z,6.70
2018-07-28T04:44:30.675Z,7.70
2018-07-28T04:46:58.681Z,6.60
2018-07-28T04:49:26.681Z,7.40
2018-07-28T04:51:54.687Z,7.40
2018-07-28T04:54:22.710Z,5.73
2018-07-28T04:56:50.707Z,6.37
2018-07-28T04:59:18.695Z,6.47
2018-07-28T05:01:46.684Z,5.87
2018-07-28T05:04:14.719Z,6.00
2018-07-28T05:06:42.713Z,5.83
2018-07-28T05:09:11.229Z,5.70
2018-07-28T05:11:39.250Z,6.30
2018-07-28T05:14:07.298Z,6.10
2018-07-28T05:16:35.295Z,6.13
2018-07-28T05:19:03.302Z,5.57
2018-07-28T05:21:31.319Z,5.33
2018-07-28T05:23:59.343Z,5.70
2018-07-28T05:26:27.350Z,5.33
2018-07-28T05:28:55.370Z,4.93
2018-07-28T05:31:23.424Z,5.80
2018-07-28T05:33:51.732Z,5.20
2018-07-28T05:36:19.755Z,5.50
2018-07-28T05:38:47.884Z,4.90
2018-07-28T05:41:15.944Z,6.10
2018-07-28T05:43:44.211Z,4.87
2018-07-28T05:46:12.242Z,5.03
2018-07-28T05:48:40.433Z,4.97
2018-07-28T05:51:08.437Z,4.40
2018-07-28T05:53:38.766Z,4.97
2018-07-28T05:56:08.256Z,5.10
2018-07-28T05:58:36.302Z,4.70
2018-07-28T06:01:04.410Z,5.00
2018-07-28T06:03:32.466Z,4.90
2018-07-28T06:06:00.527Z,4.70
2018-07-28T06:08:28.563Z,5.20
2018-07-28T06:10:56.607Z,3.73
2018-07-28T06:13:24.660Z,4.30
2018-07-28T06:15:52.851Z,4.40
2018-07-28T06:18:20.867Z,4.40
2018-07-28T06:20:55.262Z,3.77
2018-07-28T06:23:23.276Z,4.57
2018-07-28T06:25:51.340Z,3.37
2018-07-28T06:28:19.326Z,4.50
2018-07-28T06:30:47.371Z,4.27
2018-07-28T06:33:15.390Z,4.03
2018-07-28T06:35:43.480Z,4.43
2018-07-28T06:38:11.525Z,4.83
2018-07-28T06:40:39.527Z,4.40
2018-07-28T06:43:07.866Z,3.70
2018-07-28T06:45:35.854Z,3.70
2018-07-28T06:48:03.881Z,4.00
2018-07-28T06:50:31.968Z,3.67
2018-07-28T06:53:00.000Z,4.03
2018-07-28T06:55:28.043Z,4.87
2018-07-28T06:57:56.053Z,4.30
2018-07-28T07:00:24.073Z,4.33
2018-07-28T07:02:52.077Z,4.73
2018-07-28T07:05:20.102Z,3.70
2018-07-28T07:07:48.098Z,3.63
2018-07-28T07:10:16.109Z,5.90
2018-07-28T07:12:44.150Z,4.83
2018-07-28T07:15:12.178Z,3.93
2018-07-28T07:17:40.218Z,4.23
2018-07-28T07:20:08.391Z,3.97
2018-07-28T07:22:36.499Z,3.83
2018-07-28T07:25:04.542Z,3.97
2018-07-28T07:27:34.118Z,3.80
2018-07-28T07:30:02.116Z,3.77
2018-07-28T07:32:30.121Z,4.27
2018-07-28T07:34:58.143Z,3.80
2018-07-28T07:37:26.167Z,3.27
2018-07-28T07:39:54.184Z,3.53
2018-07-28T07:42:22.188Z,3.73
2018-07-28T07:44:50.218Z,3.60
2018-07-28T07:47:18.259Z,3.87
2018-07-28T07:49:46.616Z,3.20
2018-07-28T07:55:30.865Z,3.30
2018-07-28T08:00:59.685Z,2.57
2018-07-28T08:03:30.941Z,3.10
2018-07-28T08:06:01.271Z,2.97
2018-07-28T08:08:42.125Z,3.10
2018-07-28T08:14:13.948Z,2.40
2018-07-28T08:19:30.535Z,2.63
2018-07-28T08:22:00.016Z,2.23
2018-07-28T08:24:29.066Z,2.90
2018-07-28T08:26:58.155Z,2.80
2018-07-28T08:29:26.210Z,2.80
2018-07-28T08:31:54.268Z,2.13
2018-07-28T08:34:22.309Z,2.77
2018-07-28T08:36:50.352Z,2.70
2018-07-28T08:39:18.369Z,1.97
2018-07-28T08:41:46.432Z,2.60
2018-07-28T08:44:14.962Z,2.90
2018-07-28T08:46:43.056Z,2.10
2018-07-28T08:49:11.264Z,3.17
2018-07-28T08:51:39.321Z,2.40
2018-07-28T08:54:07.392Z,3.13
2018-07-28T08:56:35.456Z,2.40
2018-07-28T08:59:03.545Z,2.60
2018-07-28T09:01:31.742Z,3.03
2018-07-28T09:03:59.835Z,2.90
2018-07-28T09:06:27.877Z,2.20
2018-07-28T09:08:55.939Z,2.13
2018-07-28T09:11:24.087Z,2.40
2018-07-28T09:13:52.120Z,2.90
2018-07-28T09:16:20.231Z,2.33
2018-07-28T09:18:48.308Z,2.43
2018-07-28T09:21:16.381Z,2.60
2018-07-28T09:23:44.396Z,2.93
2018-07-28T09:26:12.436Z,2.20
2018-07-28T09:28:40.490Z,1.90
2018-07-28T09:31:08.618Z,2.63
2018-07-28T09:33:36.702Z,2.37
2018-07-28T09:36:04.725Z,2.13
2018-07-28T09:38:33.700Z,2.30
2018-07-28T09:41:01.732Z,2.23
2018-07-28T09:43:29.752Z,2.50
2018-07-28T09:45:57.783Z,2.50
2018-07-28T09:48:25.791Z,2.33
2018-07-28T09:50:53.958Z,2.70
2018-07-28T09:53:22.140Z,2.60
2018-07-28T09:55:50.172Z,3.00
2018-07-28T09:58:18.219Z,2.23
2018-07-28T10:00:51.697Z,2.53
2018-07-28T10:03:19.724Z,2.60
2018-07-28T10:05:47.800Z,2.77
2018-07-28T10:08:15.915Z,2.20
2018-07-28T10:10:44.161Z,2.70
2018-07-28T10:13:12.191Z,2.60
2018-07-28T10:15:40.207Z,2.30
2018-07-28T10:18:08.287Z,2.47
2018-07-28T10:20:36.282Z,2.40
2018-07-28T10:23:04.400Z,2.83
2018-07-28T10:25:32.365Z,3.83
2018-07-28T10:28:00.539Z,3.30
2018-07-28T10:30:28.621Z,2.60
2018-07-28T10:32:56.670Z,3.10
2018-07-28T10:35:24.686Z,2.80
2018-07-28T10:37:52.730Z,3.00
2018-07-28T10:40:20.755Z,3.00
2018-07-28T10:42:48.837Z,3.10
2018-07-28T10:45:16.897Z,3.27
2018-07-28T10:47:45.019Z,3.00
2018-07-28T10:50:13.049Z,3.40
2018-07-28T10:52:41.054Z,3.13
2018-07-28T10:55:09.075Z,3.70
2018-07-28T10:57:37.168Z,3.07
2018-07-28T11:00:16.115Z,3.50
2018-07-28T11:02:59.537Z,3.67
2018-07-28T11:08:30.663Z,3.27
2018-07-28T11:11:00.071Z,3.00
2018-07-28T11:13:33.434Z,3.80
2018-07-28T11:16:04.759Z,3.20
2018-07-28T11:21:13.454Z,3.60
2018-07-28T11:23:59.757Z,3.13
2018-07-28T11:29:25.237Z,3.23
2018-07-28T11:32:05.076Z,4.00
2018-07-28T11:34:45.450Z,3.53
2018-07-28T11:37:27.904Z,3.70
2018-07-28T11:40:04.606Z,4.07
2018-07-28T11:42:39.464Z,3.43
2018-07-28T11:45:13.598Z,3.20
2018-07-28T11:47:41.718Z,3.93
2018-07-28T11:50:09.767Z,3.70
2018-07-28T11:52:37.803Z,3.83
2018-07-28T11:55:05.961Z,3.80
2018-07-28T11:57:34.053Z,3.83
2018-07-28T12:00:02.237Z,3.67
2018-07-28T12:02:30.278Z,3.73
2018-07-28T12:04:58.331Z,4.10
2018-07-28T12:07:26.359Z,4.23
2018-07-28T12:09:54.395Z,3.07
2018-07-28T12:12:22.675Z,3.00
2018-07-28T12:14:50.771Z,3.00
2018-07-28T12:17:18.815Z,3.20
2018-07-28T12:19:46.832Z,3.60
2018-07-28T12:22:14.892Z,3.33
2018-07-28T12:24:42.927Z,3.57
2018-07-28T12:27:10.931Z,3.90
2018-07-28T12:29:38.962Z,3.83
2018-07-28T12:32:07.126Z,3.63
2018-07-28T12:34:35.163Z,3.67
2018-07-28T12:37:03.295Z,4.07
2018-07-28T12:39:31.370Z,3.90
2018-07-28T12:41:59.411Z,3.83
2018-07-28T12:44:27.481Z,5.00
2018-07-28T12:46:55.501Z,4.43
2018-07-28T12:49:23.547Z,3.77
2018-07-28T12:51:51.606Z,4.10
2018-07-28T12:54:19.642Z,3.77
2018-07-28T12:56:47.690Z,4.30
2018-07-28T12:59:15.726Z,3.83
2018-07-28T13:01:43.827Z,4.17
2018-07-28T13:04:11.866Z,4.27
2018-07-28T13:06:39.906Z,3.30
2018-07-28T13:09:08.589Z,3.83
2018-07-28T13:11:36.657Z,3.67
2018-07-28T13:14:04.695Z,4.00
2018-07-28T13:16:32.795Z,3.23
2018-07-28T13:19:00.877Z,2.90
2018-07-28T13:21:28.934Z,3.47
2018-07-28T13:23:57.097Z,3.40
2018-07-28T13:26:25.329Z,3.50
2018-07-28T13:28:53.442Z,3.67
2018-07-28T13:31:21.598Z,3.60
2018-07-28T13:33:49.690Z,3.50
2018-07-28T13:36:17.780Z,3.30
2018-07-28T13:38:45.902Z,3.10
2018-07-28T13:41:13.972Z,3.50
2018-07-28T13:43:42.011Z,3.40
2018-07-28T13:46:10.093Z,3.20
2018-07-28T13:48:38.102Z,3.80
2018-07-28T13:51:07.218Z,3.80
2018-07-28T13:53:35.226Z,3.33
2018-07-28T13:56:03.295Z,3.20
2018-07-28T13:58:31.340Z,3.47
2018-07-28T14:00:59.399Z,2.90
2018-07-28T14:03:27.446Z,3.33
2018-07-28T14:05:55.624Z,3.70
2018-07-28T14:10:58.235Z,3.47
2018-07-28T14:13:26.263Z,3.67
2018-07-28T14:15:54.323Z,3.20
2018-07-28T14:18:22.479Z,3.30
2018-07-28T14:20:50.448Z,2.70
2018-07-28T14:23:18.602Z,3.10
2018-07-28T14:25:46.599Z,2.93
2018-07-28T14:28:14.634Z,2.47
2018-07-28T14:30:42.699Z,2.63
2018-07-28T14:33:11.839Z,2.60
2018-07-28T14:35:39.958Z,2.80
2018-07-28T14:38:07.978Z,2.50
2018-07-28T14:40:36.038Z,2.40
2018-07-28T14:43:05.163Z,2.57
2018-07-28T14:45:33.185Z,2.70
2018-07-28T14:48:01.288Z,2.50
2018-07-28T14:50:30.351Z,2.70
2018-07-28T14:52:58.454Z,2.87
2018-07-28T14:55:26.468Z,2.27
2018-07-28T14:57:54.615Z,2.17
2018-07-28T15:00:22.666Z,2.40
2018-07-28T15:02:50.772Z,2.73
2018-07-28T15:05:18.936Z,2.73
2018-07-28T15:07:47.060Z,2.83
2018-07-28T15:10:15.143Z,2.87
2018-07-28T15:12:43.216Z,2.90
2018-07-28T15:15:11.378Z,2.47
2018-07-28T15:17:39.460Z,3.13
2018-07-28T15:20:07.536Z,3.00
2018-07-28T15:22:35.664Z,2.90
2018-07-28T15:25:03.710Z,3.33
2018-07-28T15:27:31.795Z,2.60
2018-07-28T15:29:59.832Z,2.97
2018-07-28T15:32:27.856Z,3.33
2018-07-28T15:34:55.945Z,3.33
2018-07-28T15:37:23.982Z,3.80
2018-07-28T15:39:52.226Z,2.87
2018-07-28T15:42:20.385Z,3.03
2018-07-28T15:44:48.455Z,3.60
2018-07-28T15:47:16.526Z,3.37
2018-07-28T15:49:44.587Z,3.70
2018-07-28T15:52:12.674Z,3.73
2018-07-28T15:54:40.703Z,3.17
2018-07-28T15:57:08.775Z,3.50
2018-07-28T15:59:36.826Z,3.67
2018-07-28T16:02:04.855Z,6.70
2018-07-28T16:04:32.876Z,3.13
2018-07-28T16:07:00.937Z,3.70
2018-07-28T16:09:28.961Z,3.37
2018-07-28T16:11:56.996Z,3.60
2018-07-28T16:14:26.894Z,3.80
2018-07-28T16:16:54.966Z,4.33
2018-07-28T16:19:22.999Z,3.60
2018-07-28T16:21:51.070Z,3.70
2018-07-28T16:24:20.164Z,3.30
2018-07-28T16:26:48.183Z,3.10
2018-07-28T16:29:16.255Z,3.60
2018-07-28T16:31:44.334Z,3.47
2018-07-28T16:34:12.386Z,3.97
2018-07-28T16:36:40.591Z,3.67
2018-07-28T16:39:10.071Z,4.30
2018-07-28T16:41:38.355Z,3.60
2018-07-28T16:44:06.526Z,3.80
2018-07-28T16:46:34.578Z,4.37
2018-07-28T16:49:02.642Z,4.80
2018-07-28T16:51:30.695Z,4.33
2018-07-28T16:53:58.780Z,4.93
2018-07-28T16:56:26.823Z,7.03
2018-07-28T16:58:54.952Z,5.13
2018-07-28T17:01:22.933Z,8.77
2018-07-28T17:03:50.975Z,6.50
2018-07-28T17:06:18.992Z,3.70
2018-07-28T17:08:47.063Z,4.40
2018-07-28T17:11:16.189Z,5.90
2018-07-28T17:13:44.280Z,7.30
2018-07-28T17:16:12.276Z,7.57
2018-07-28T17:18:40.324Z,5.27
2018-07-28T17:21:10.395Z,5.97
2018-07-28T17:23:38.439Z,4.43
2018-07-28T17:26:06.469Z,6.03
2018-07-28T17:28:34.500Z,5.50
2018-07-28T17:31:02.706Z,5.60
2018-07-28T17:33:30.605Z,4.27
2018-07-28T17:35:58.682Z,4.80
2018-07-28T17:38:26.703Z,4.50
2018-07-28T17:40:54.788Z,4.50
2018-07-28T17:43:22.849Z,3.73
2018-07-28T17:45:50.853Z,3.93
2018-07-28T17:48:19.145Z,4.27
2018-07-28T17:50:47.265Z,4.00
2018-07-28T17:53:15.334Z,4.20
2018-07-28T17:55:43.429Z,4.10
2018-07-28T17:58:11.529Z,3.63
2018-07-28T18:00:39.671Z,5.50
2018-07-28T18:03:07.756Z,4.40
2018-07-28T18:05:35.822Z,4.27
2018-07-28T18:08:03.850Z,3.73
2018-07-28T18:10:31.900Z,4.10
2018-07-28T18:12:59.941Z,4.30
2018-07-28T18:15:28.012Z,4.37
2018-07-28T18:17:56.108Z,4.00
2018-07-28T18:20:24.212Z,3.13
2018-07-28T18:22:52.251Z,3.50
2018-07-28T18:25:20.382Z,3.93
2018-07-28T18:27:48.423Z,3.70
2018-07-28T18:30:16.555Z,3.70
2018-07-28T18:32:44.535Z,4.37
2018-07-28T18:35:12.588Z,4.10
2018-07-28T18:37:40.732Z,3.80
2018-07-28T18:40:08.822Z,3.90
2018-07-28T18:42:36.964Z,4.00
2018-07-28T18:45:05.095Z,3.10
2018-07-28T18:47:33.122Z,3.67
2018-07-28T18:50:01.302Z,3.77
2018-07-28T18:52:29.356Z,3.87
2018-07-28T18:54:57.395Z,4.07
2018-07-28T18:57:25.424Z,4.50
2018-07-28T18:59:53.496Z,3.63
2018-07-28T19:02:21.568Z,4.43
2018-07-28T19:04:49.637Z,5.00
2018-07-28T19:07:17.922Z,4.27
2018-07-28T19:09:49.911Z,4.10
2018-07-28T19:12:22.247Z,3.73
2018-07-28T19:14:50.416Z,3.90
2018-07-28T19:17:18.471Z,3.50
2018-07-28T19:19:46.519Z,3.43
2018-07-28T19:22:19.991Z,4.33
2018-07-28T19:24:48.053Z,3.90
2018-07-28T19:27:16.081Z,3.77
2018-07-28T19:29:45.073Z,3.90
2018-07-28T19:32:13.116Z,4.50
2018-07-28T19:34:41.182Z,4.20
2018-07-28T19:37:14.719Z,4.37
2018-07-28T19:39:42.912Z,4.07
2018-07-28T19:42:16.620Z,4.40
2018-07-28T19:44:44.664Z,3.70
2018-07-28T19:47:12.743Z,4.87
2018-07-28T19:49:40.812Z,4.13
2018-07-28T19:52:08.866Z,4.90
2018-07-28T19:54:36.891Z,4.50
2018-07-28T19:57:05.052Z,4.27
2018-07-28T19:59:33.097Z,4.27
2018-07-28T20:02:01.163Z,4.33
2018-07-28T20:04:29.178Z,4.17
2018-07-28T20:06:57.307Z,4.60
2018-07-28T20:09:25.293Z,4.40
2018-07-28T20:11:53.362Z,4.80
2018-07-28T20:14:21.418Z,4.63
2018-07-28T20:16:49.479Z,5.20
2018-07-28T20:19:17.501Z,4.40
2018-07-28T20:21:45.573Z,5.20
2018-07-28T20:24:14.732Z,4.40
2018-07-28T20:26:42.776Z,4.23
2018-07-28T20:29:10.797Z,4.70
2018-07-28T20:31:38.856Z,4.70
2018-07-28T20:34:06.878Z,5.03
2018-07-28T20:36:34.917Z,5.10
2018-07-28T20:39:02.994Z,4.80
2018-07-28T20:41:31.015Z,4.73
2018-07-28T20:43:59.035Z,5.00
2018-07-28T20:46:27.060Z,4.67
2018-07-28T20:48:55.094Z,4.50
2018-07-28T20:51:23.115Z,4.70
2018-07-28T20:53:51.136Z,4.10
2018-07-28T20:56:19.155Z,4.30
2018-07-28T20:58:47.162Z,5.33
2018-07-28T21:01:15.189Z,4.40
2018-07-28T21:03:43.221Z,4.13
2018-07-28T21:06:11.368Z,5.10
2018-07-28T21:08:39.370Z,4.83
2018-07-28T21:11:07.398Z,4.07
2018-07-28T21:13:35.405Z,4.90
2018-07-28T21:16:03.478Z,4.97
2018-07-28T21:18:31.657Z,4.73
2018-07-28T21:20:59.716Z,4.33
2018-07-28T21:23:27.766Z,4.67
2018-07-28T21:25:55.767Z,4.27
2018-07-28T21:28:23.790Z,4.73
2018-07-28T21:30:51.836Z,4.23
2018-07-28T21:33:19.868Z,4.07
2018-07-28T21:35:47.890Z,4.50
2018-07-28T21:38:16.049Z,3.90
2018-07-28T21:40:43.936Z,4.97
2018-07-28T21:43:12.005Z,4.17
2018-07-28T21:45:40.155Z,4.77
2018-07-28T21:48:08.174Z,4.17
2018-07-28T21:50:36.194Z,3.97
2018-07-28T21:53:04.252Z,4.33
2018-07-28T21:55:32.234Z,3.90
2018-07-28T21:58:00.247Z,4.30
2018-07-28T22:00:32.577Z,4.80
2018-07-28T22:03:00.592Z,4.47
2018-07-28T22:05:28.595Z,4.23
2018-07-28T22:07:56.603Z,3.80
2018-07-28T22:10:24.625Z,4.00
2018-07-28T22:12:52.638Z,4.83
2018-07-28T22:15:20.679Z,5.90
2018-07-28T22:17:48.675Z,4.40
2018-07-28T22:20:16.685Z,4.07
2018-07-28T22:22:44.699Z,4.73
2018-07-28T22:25:12.716Z,4.23
2018-07-28T22:27:40.731Z,4.57
2018-07-28T22:30:08.733Z,4.50
2018-07-28T22:32:36.835Z,4.10
2018-07-28T22:35:04.874Z,4.23
2018-07-28T22:37:32.964Z,4.60
2018-07-28T22:40:00.930Z,4.00
2018-07-28T22:42:34.604Z,4.10
2018-07-28T22:45:02.618Z,4.40
2018-07-28T22:47:30.621Z,4.07
2018-07-28T22:49:58.615Z,4.50
2018-07-28T22:52:26.634Z,4.53
2018-07-28T22:54:54.651Z,4.20
2018-07-28T22:57:22.661Z,4.17
2018-07-28T22:59:50.672Z,4.73
2018-07-28T23:02:18.747Z,4.17
2018-07-28T23:04:46.838Z,4.47
2018-07-28T23:07:14.890Z,4.13
2018-07-28T23:09:42.997Z,3.50
2018-07-28T23:12:11.007Z,4.47
2018-07-28T23:14:39.041Z,4.17
2018-07-28T23:17:07.021Z,4.10
2018-07-28T23:19:35.038Z,3.70
2018-07-28T23:22:03.242Z,4.10
2018-07-28T23:24:31.276Z,4.17
2018-07-28T23:26:59.285Z,4.00
2018-07-28T23:29:27.292Z,4.17
2018-07-28T23:31:55.287Z,3.93
2018-07-28T23:34:23.317Z,4.40
2018-07-28T23:36:51.318Z,4.30
2018-07-28T23:39:19.321Z,4.10
2018-07-28T23:41:47.317Z,4.00
2018-07-28T23:44:16.133Z,3.80
2018-07-28T23:46:44.154Z,3.83
2018-07-28T23:49:12.141Z,3.47
2018-07-28T23:51:40.142Z,3.80
2018-07-28T23:54:08.130Z,4.30
2018-07-28T23:56:36.127Z,3.90
2018-07-28T23:59:04.174Z,3.93
